Pittsburg, New Hampshire
Current Conditions -  °F | °C
As of 4:09 AM on Sunday 26 Oct 2014 (Local Time) from CYSC Reporting Station
Overcast Overcast  
Wind Chill: 42°   Ceiling: 1600
Heat Index: 46°   Visibility: 9mi
Dew Point: 45°   Wind: 8mph
Humidity: 93%   Direction: 230°SW
Pressure: 29.36"   Gusts: NA
Location:  45.05°N, 71.39°W
Report Text: CYSC 260809Z AUTO 23007KT 9SM BKN016 OVC021 08/07 A2936 RMK SLP945 DENSITY ALT 800FT
Loading
Personal Weather Stations






























Interactive Weather Map
Tropical Storm Tracking
New forecast layout! Learn more

10-Day Weather Forecast

Advertisements
Track Severe Weather on mobile